createdAt,value
2019-02-10T00:02:47.319Z,8.90
2019-02-10T00:07:54.434Z,8.90
2019-02-10T00:13:24.193Z,8.80
2019-02-10T00:18:30.492Z,8.90
2019-02-10T00:23:35.663Z,8.90
2019-02-10T00:28:40.653Z,8.90
2019-02-10T00:33:45.597Z,8.80
2019-02-10T00:38:50.765Z,8.90
2019-02-10T00:43:56.519Z,8.90
2019-02-10T00:49:03.302Z,8.80
2019-02-10T00:54:08.260Z,8.80
2019-02-10T00:59:13.181Z,8.80
2019-02-10T01:04:18.385Z,8.80
2019-02-10T01:09:23.313Z,8.80
2019-02-10T01:14:28.156Z,8.80
2019-02-10T01:19:37.096Z,8.80
2019-02-10T01:24:42.309Z,8.80
2019-02-10T01:29:47.426Z,8.70
2019-02-10T01:34:52.941Z,8.70
2019-02-10T01:39:57.918Z,8.70
2019-02-10T01:45:02.892Z,8.70
2019-02-10T01:50:09.168Z,8.70
2019-02-10T01:55:14.857Z,8.70
2019-02-10T02:00:20.146Z,8.70
2019-02-10T02:05:25.869Z,8.70
2019-02-10T02:10:33.841Z,8.70
2019-02-10T02:15:39.074Z,8.70
2019-02-10T02:20:43.913Z,8.60
2019-02-10T02:25:49.088Z,8.60
2019-02-10T02:30:55.854Z,8.50
2019-02-10T02:36:01.099Z,8.40
2019-02-10T02:41:06.464Z,8.40
2019-02-10T02:46:11.366Z,8.30
2019-02-10T02:51:16.275Z,8.20
2019-02-10T02:56:21.412Z,8.30
2019-02-10T03:01:26.749Z,8.10
2019-02-10T03:06:45.360Z,8.20
2019-02-10T03:11:51.077Z,8.10
2019-02-10T03:16:56.496Z,8.10
2019-02-10T03:22:03.354Z,8.10
2019-02-10T03:27:08.184Z,8.00
2019-02-10T03:32:13.108Z,8.00
2019-02-10T03:37:26.663Z,8.00
2019-02-10T03:42:24.955Z,8.00
2019-02-10T03:47:30.405Z,8.00
2019-02-10T03:52:35.257Z,8.00
2019-02-10T03:57:40.414Z,8.10
2019-02-10T04:02:45.556Z,8.00
2019-02-10T04:07:50.814Z,8.10
2019-02-10T04:12:56.311Z,8.10
2019-02-10T04:18:01.892Z,8.10
2019-02-10T04:23:10.542Z,8.10
2019-02-10T04:28:16.088Z,8.20
2019-02-10T04:33:21.502Z,8.20
2019-02-10T04:38:26.745Z,8.30
2019-02-10T04:43:31.967Z,8.30
2019-02-10T04:48:37.037Z,8.30
2019-02-10T04:53:41.939Z,8.40
2019-02-10T04:58:47.083Z,8.40
2019-02-10T05:03:52.360Z,8.50
2019-02-10T05:08:57.548Z,8.50
2019-02-10T05:14:02.504Z,8.60
2019-02-10T05:19:07.396Z,8.60
2019-02-10T05:24:12.505Z,8.60
2019-02-10T05:29:17.378Z,8.60
2019-02-10T05:34:22.602Z,8.70
2019-02-10T05:39:27.747Z,8.70
2019-02-10T05:44:33.605Z,8.80
2019-02-10T05:49:38.756Z,8.80
2019-02-10T05:54:43.878Z,8.80
2019-02-10T05:59:49.395Z,8.80
2019-02-10T06:04:54.473Z,8.80
2019-02-10T06:09:59.378Z,8.80
2019-02-10T06:15:04.313Z,8.80
2019-02-10T06:20:09.498Z,8.80
2019-02-10T06:25:14.506Z,8.80
2019-02-10T06:30:19.488Z,8.80
2019-02-10T06:35:24.780Z,8.80
2019-02-10T06:40:29.862Z,8.90
2019-02-10T06:45:35.185Z,8.90
2019-02-10T06:50:40.442Z,8.90
2019-02-10T06:55:45.344Z,9.00
2019-02-10T07:00:57.816Z,9.00
2019-02-10T07:06:03.067Z,9.00
2019-02-10T07:11:08.276Z,9.00
2019-02-10T07:16:54.841Z,9.10
2019-02-10T07:21:59.758Z,9.10
2019-02-10T07:27:18.884Z,9.10
2019-02-10T07:32:37.959Z,9.10
2019-02-10T07:37:54.530Z,9.10
2019-02-10T07:43:41.101Z,9.20
2019-02-10T07:49:23.373Z,9.20
2019-02-10T07:54:49.092Z,9.20
2019-02-10T08:00:09.906Z,9.30
2019-02-10T08:05:33.962Z,9.30
2019-02-10T08:11:08.625Z,9.30
2019-02-10T08:16:25.213Z,9.30
2019-02-10T08:22:02.385Z,9.30
2019-02-10T08:27:42.056Z,9.30
2019-02-10T08:33:11.469Z,9.40
2019-02-10T08:39:07.149Z,9.40
2019-02-10T08:44:34.450Z,9.40
2019-02-10T08:50:17.972Z,9.30
2019-02-10T08:55:23.252Z,9.30
2019-02-10T09:00:28.394Z,9.30
2019-02-10T09:05:33.300Z,9.30
2019-02-10T09:10:38.235Z,9.30
2019-02-10T09:15:43.557Z,9.30
2019-02-10T09:20:49.768Z,9.30
2019-02-10T09:25:55.303Z,9.30
2019-02-10T09:31:00.522Z,9.30
2019-02-10T09:36:06.167Z,9.30
2019-02-10T09:41:11.663Z,9.30
2019-02-10T09:46:16.738Z,9.30
2019-02-10T09:51:21.840Z,9.30
2019-02-10T09:56:26.783Z,9.30
2019-02-10T10:01:32.105Z,9.30
2019-02-10T10:06:37.884Z,9.30
2019-02-10T10:11:43.844Z,9.30
2019-02-10T10:16:49.233Z,9.30
2019-02-10T10:21:54.506Z,9.30
2019-02-10T10:26:59.672Z,9.40
2019-02-10T10:32:04.829Z,9.40
2019-02-10T10:37:09.989Z,9.30
2019-02-10T10:42:15.449Z,9.30
2019-02-10T10:47:20.658Z,9.20
2019-02-10T10:52:25.745Z,9.20
2019-02-10T10:57:30.565Z,9.10
2019-02-10T11:02:35.517Z,9.10
2019-02-10T11:07:41.106Z,9.10
2019-02-10T11:12:46.276Z,9.10
2019-02-10T11:17:51.772Z,9.10
2019-02-10T11:22:57.216Z,9.10
2019-02-10T11:28:02.532Z,9.10
2019-02-10T11:33:07.973Z,9.10
2019-02-10T11:38:12.844Z,9.20
2019-02-10T11:43:19.701Z,9.10
2019-02-10T11:48:25.713Z,9.10
2019-02-10T11:53:30.633Z,9.00
2019-02-10T11:58:35.795Z,8.90
2019-02-10T12:03:41.236Z,9.00
2019-02-10T12:08:48.699Z,8.70
2019-02-10T12:13:55.836Z,8.80
2019-02-10T12:19:01.126Z,8.80
2019-02-10T12:24:06.083Z,8.80
2019-02-10T12:29:11.236Z,8.80
2019-02-10T12:34:16.069Z,8.80
2019-02-10T12:39:21.252Z,8.70
2019-02-10T12:44:26.731Z,8.80
2019-02-10T12:49:31.974Z,8.80
2019-02-10T12:54:37.200Z,8.80
2019-02-10T12:59:42.368Z,8.80
2019-02-10T13:04:47.818Z,8.80
2019-02-10T13:09:52.939Z,8.70
2019-02-10T13:14:58.479Z,8.80
2019-02-10T13:20:04.035Z,8.70
2019-02-10T13:25:09.052Z,8.70
2019-02-10T13:30:14.249Z,8.80
2019-02-10T13:35:20.609Z,8.90
2019-02-10T13:40:25.981Z,8.90
2019-02-10T13:45:32.419Z,8.80
2019-02-10T13:50:37.691Z,8.80
2019-02-10T13:55:43.457Z,8.70
2019-02-10T14:00:49.260Z,8.70
2019-02-10T14:05:54.242Z,8.60
2019-02-10T14:10:59.328Z,8.50
2019-02-10T14:16:04.827Z,8.50
2019-02-10T14:21:17.544Z,8.50
2019-02-10T14:26:22.877Z,8.30
2019-02-10T14:31:28.100Z,8.40
2019-02-10T14:36:33.591Z,8.30
2019-02-10T14:41:38.642Z,8.30
2019-02-10T14:46:44.046Z,8.20
2019-02-10T14:51:49.025Z,8.00
2019-02-10T14:56:54.195Z,8.00
2019-02-10T15:02:00.792Z,7.90
2019-02-10T15:07:05.706Z,7.90
2019-02-10T15:12:10.937Z,7.80
2019-02-10T15:17:19.022Z,7.80
2019-02-10T15:22:25.597Z,7.80
2019-02-10T15:27:31.199Z,7.80
2019-02-10T15:32:36.115Z,7.70
2019-02-10T15:37:41.101Z,7.70
2019-02-10T15:42:46.654Z,7.60
2019-02-10T15:47:52.763Z,7.60
2019-02-10T15:52:58.288Z,7.60
2019-02-10T15:58:03.859Z,7.60
2019-02-10T16:03:09.010Z,7.60
2019-02-10T16:08:14.216Z,7.70
2019-02-10T16:13:19.513Z,7.50
2019-02-10T16:18:24.745Z,7.60
2019-02-10T16:23:30.771Z,7.50
2019-02-10T16:28:38.235Z,7.50
2019-02-10T16:33:44.947Z,7.50
2019-02-10T16:38:50.641Z,7.50
2019-02-10T16:43:56.789Z,7.40
2019-02-10T16:49:02.013Z,7.40
2019-02-10T16:54:07.882Z,7.40
2019-02-10T16:59:14.471Z,7.30
2019-02-10T17:04:20.041Z,7.30
2019-02-10T17:09:27.768Z,7.30
2019-02-10T17:14:34.128Z,7.20
2019-02-10T17:19:39.382Z,7.20
2019-02-10T17:24:44.653Z,7.20
2019-02-10T17:29:52.519Z,7.20
2019-02-10T17:34:58.236Z,6.80
2019-02-10T17:40:04.453Z,6.90
2019-02-10T17:45:10.014Z,6.70
2019-02-10T17:50:15.288Z,6.80
2019-02-10T17:55:20.499Z,6.80
2019-02-10T18:00:29.438Z,6.90
2019-02-10T18:05:35.548Z,6.90
2019-02-10T18:10:41.286Z,6.80
2019-02-10T18:16:05.819Z,6.80
2019-02-10T18:21:25.152Z,6.60
2019-02-10T18:26:43.097Z,6.50
2019-02-10T18:32:01.178Z,6.50
2019-02-10T18:37:30.514Z,6.50
2019-02-10T18:42:50.689Z,6.40
2019-02-10T18:48:21.222Z,6.50
2019-02-10T18:53:51.581Z,6.50
2019-02-10T18:59:16.845Z,6.40
2019-02-10T19:04:44.850Z,6.20
2019-02-10T19:10:02.733Z,6.20
2019-02-10T19:15:38.581Z,6.10
2019-02-10T19:20:55.412Z,6.10
2019-02-10T19:26:28.804Z,6.10
2019-02-10T19:31:54.694Z,6.10
2019-02-10T19:37:15.347Z,5.90
2019-02-10T19:42:32.719Z,5.80
2019-02-10T19:48:03.200Z,5.70
2019-02-10T19:53:34.642Z,5.80
2019-02-10T19:58:51.338Z,5.60
2019-02-10T20:04:19.665Z,5.60
2019-02-10T20:09:45.028Z,5.50
2019-02-10T20:15:10.063Z,5.60
2019-02-10T20:20:40.371Z,5.60
2019-02-10T20:26:22.099Z,5.50
2019-02-10T20:31:45.701Z,5.60
2019-02-10T20:37:09.635Z,5.60
2019-02-10T20:42:21.072Z,5.50
2019-02-10T20:47:36.282Z,5.20
2019-02-10T20:53:08.291Z,5.30
2019-02-10T20:58:38.599Z,5.30
2019-02-10T21:04:03.720Z,5.10
2019-02-10T21:09:42.498Z,5.20
2019-02-10T21:15:10.091Z,5.10
2019-02-10T21:20:37.116Z,5.10
2019-02-10T21:25:56.451Z,5.10
2019-02-10T21:31:19.268Z,5.10
2019-02-10T21:36:34.041Z,5.20
2019-02-10T21:41:53.341Z,5.10
2019-02-10T21:47:05.786Z,5.10
2019-02-10T21:52:11.318Z,5.20
2019-02-10T21:57:16.313Z,5.00
2019-02-10T22:02:21.524Z,5.10
2019-02-10T22:07:26.286Z,5.00
2019-02-10T22:12:36.914Z,4.90
2019-02-10T22:17:37.775Z,4.80
2019-02-10T22:22:42.696Z,5.00
2019-02-10T22:27:48.341Z,5.00
2019-02-10T22:32:53.590Z,4.90
2019-02-10T22:37:59.088Z,4.90
2019-02-10T22:43:04.529Z,4.80
2019-02-10T22:48:10.278Z,4.80
2019-02-10T22:53:15.282Z,4.90
2019-02-10T22:58:20.168Z,4.80
2019-02-10T23:03:25.357Z,4.80
2019-02-10T23:08:30.302Z,4.90
2019-02-10T23:13:35.784Z,4.60
2019-02-10T23:18:41.338Z,4.80
2019-02-10T23:23:46.356Z,4.70
2019-02-10T23:28:51.257Z,4.80
2019-02-10T23:33:56.146Z,4.60
2019-02-10T23:39:01.292Z,4.50
2019-02-10T23:44:06.368Z,4.60
2019-02-10T23:49:11.222Z,4.50
2019-02-10T23:54:16.122Z,4.50
2019-02-10T23:59:21.398Z,4.50
